Time;durP1;ratioP1;P1;durP2;ratioP2;P2;SDS_P1;SDS_P2;PMS_P1;PMS_P2;Temp;Humidity;BMP_temperature;BMP_pressure;BME280_temperature;BME280_humidity;BME280_pressure;Samples;Min_cycle;Max_cycle;Signal;HPM_P1;HPM_P2
2022/04/02 04:22:35;;;;;;;28.48;16.15;;;;;;;0.02;100.00;99408.34;5129464;27;20165;-75
2022/04/02 04:25:02;;;;;;;28.02;15.80;;;;;;;0.01;100.00;99404.09;5111276;28;20039;-76
2022/04/02 04:27:30;;;;;;;28.05;15.75;;;;;;;0.17;100.00;99421.97;5127429;28;20031;-75
2022/04/02 04:29:56;;;;;;;27.80;15.20;;;;;;;0.17;100.00;99406.25;5128197;28;20027;-75
2022/04/02 04:32:24;;;;;;;21.02;13.43;;;;;;;0.16;100.00;99415.91;5130304;28;20069;-77
2022/04/02 04:34:49;;;;;;;24.27;14.82;;;;;;;0.16;100.00;99412.44;5111569;28;20088;-76
2022/04/02 04:37:15;;;;;;;25.27;15.98;;;;;;;0.14;100.00;99420.44;5128047;28;20075;-76
2022/04/02 04:39:41;;;;;;;24.23;14.85;;;;;;;0.16;100.00;99429.00;5110769;28;20031;-75
2022/04/02 04:42:08;;;;;;;23.80;15.50;;;;;;;0.15;100.00;99423.88;5127605;28;20571;-76
2022/04/02 04:44:36;;;;;;;;;;;;;;;0.19;100.00;99431.34;5111509;28;20557;-76
2022/04/02 04:47:03;;;;;;;21.23;13.63;;;;;;;0.16;100.00;99429.00;5110908;28;19954;-77
2022/04/02 04:49:34;;;;;;;27.67;16.35;;;;;;;0.17;100.00;99435.06;5127702;28;20464;-76
2022/04/02 04:52:05;;;;;;;23.55;14.40;;;;;;;0.13;100.00;99433.63;5127387;28;20169;-76
2022/04/02 04:54:32;;;;;;;;;;;;;;;0.14;100.00;99437.94;5128209;28;20035;-76
2022/04/02 04:57:00;;;;;;;20.17;13.77;;;;;;;0.14;100.00;99441.41;5127407;28;20398;-76
2022/04/02 04:59:25;;;;;;;23.80;14.52;;;;;;;0.16;100.00;99447.31;5110624;28;20051;-77
2022/04/02 05:01:53;;;;;;;24.02;15.00;;;;;;;0.16;100.00;99442.09;5127223;28;20660;-76
2022/04/02 05:04:19;;;;;;;24.83;14.45;;;;;;;0.16;100.00;99451.75;5110393;28;20040;-76
2022/04/02 05:06:49;;;;;;;21.42;13.45;;;;;;;0.10;100.00;99453.06;5127330;28;20575;-76
2022/04/02 05:09:17;;;;;;;21.92;13.50;;;;;;;0.10;100.00;99455.69;5110404;28;20158;-76
2022/04/02 05:11:45;;;;;;;;;;;;;;;0.09;100.00;99458.44;5127586;28;20039;-75
2022/04/02 05:14:13;;;;;;;24.90;13.45;;;;;;;0.02;100.00;99460.72;5127292;28;19911;-75
2022/04/02 05:16:43;;;;;;;24.10;13.52;;;;;;;0.06;100.00;99456.88;5127068;28;20054;-75
2022/04/02 05:19:12;;;;;;;24.00;14.07;;;;;;;0.12;100.00;99461.63;5127080;28;20043;-75
2022/04/02 05:21:39;;;;;;;19.27;12.98;;;;;;;0.10;100.00;99468.78;5126928;28;20085;-75
2022/04/02 05:24:07;;;;;;;22.98;13.05;;;;;;;-0.04;100.00;99466.47;5126834;28;20043;-76
2022/04/02 05:26:36;;;;;;;21.27;13.35;;;;;;;0.05;100.00;99468.31;5126964;28;20435;-75
2022/04/02 05:29:08;;;;;;;22.17;14.32;;;;;;;-0.01;100.00;99464.41;5127228;28;20047;-75
2022/04/02 05:31:33;;;;;;;22.98;13.65;;;;;;;0.03;100.00;99467.63;5126901;28;20122;-76
2022/04/02 05:33:59;;;;;;;20.13;13.57;;;;;;;-0.01;100.00;99474.88;5112920;28;20027;-74
2022/04/02 05:36:25;;;;;;;24.05;13.70;;;;;;;0.01;100.00;99484.44;5114585;28;20089;-76
2022/04/02 05:38:51;;;;;;;23.48;13.90;;;;;;;0.03;100.00;99488.56;5113255;28;20118;-77
2022/04/02 05:41:17;;;;;;;21.02;13.30;;;;;;;-0.01;100.00;99492.38;5096200;28;20118;-76
2022/04/02 05:43:43;;;;;;;22.67;13.95;;;;;;;0.10;100.00;99505.44;5112766;28;20083;-75
2022/04/02 05:46:10;;;;;;;25.58;14.40;;;;;;;0.08;100.00;99503.94;5113011;28;20157;-76
2022/04/02 05:48:37;;;;;;;23.17;12.80;;;;;;;0.09;100.00;99503.78;5115541;28;20035;-75
2022/04/02 05:51:02;;;;;;;23.80;14.15;;;;;;;0.13;100.00;99506.97;5112882;28;20411;-75
2022/04/02 05:53:28;;;;;;;22.60;13.15;;;;;;;0.07;100.00;99508.34;5114240;28;20047;-76
2022/04/02 05:55:54;;;;;;;22.80;14.38;;;;;;;0.09;100.00;99509.03;5114476;28;20031;-77
2022/04/02 05:58:20;;;;;;;19.63;12.52;;;;;;;0.06;100.00;99511.06;5113193;28;20498;-76
2022/04/02 06:00:46;;;;;;;20.70;13.18;;;;;;;0.03;100.00;99517.38;5113061;28;20042;-75
2022/04/02 06:03:14;;;;;;;18.98;12.98;;;;;;;0.06;100.00;99508.44;5113982;28;20040;-76
2022/04/02 06:05:40;;;;;;;22.27;13.95;;;;;;;0.11;100.00;99522.81;5114205;28;20412;-76
2022/04/02 06:08:06;;;;;;;21.63;13.27;;;;;;;0.04;100.00;99521.66;5113051;28;20035;-76
2022/04/02 06:10:31;;;;;;;24.02;13.75;;;;;;;0.09;100.00;99531.78;5113056;28;20031;-74
2022/04/02 06:12:57;;;;;;;21.48;12.65;;;;;;;0.18;100.00;99529.22;5113858;28;20040;-73
2022/04/02 06:15:24;;;;;;;21.50;12.98;;;;;;;0.07;100.00;99537.13;5114153;28;20036;-72
2022/04/02 06:17:51;;;;;;;21.30;13.98;;;;;;;0.17;100.00;99539.84;5112819;28;20462;-71
2022/04/02 06:20:17;;;;;;;17.10;11.68;;;;;;;0.11;100.00;99542.94;5113758;27;20110;-73
2022/04/02 06:22:42;;;;;;;19.83;13.25;;;;;;;0.16;100.00;99549.47;5113772;28;20076;-74
2022/04/02 06:25:09;;;;;;;18.70;12.75;;;;;;;0.16;100.00;99539.00;5114059;28;20043;-75
2022/04/02 06:27:45;;;;;;;17.52;12.05;;;;;;;0.17;100.00;99542.44;5113858;28;20027;-74
2022/04/02 06:30:13;;;;;;;18.10;11.95;;;;;;;0.10;100.00;99547.34;5113618;28;20031;-73
2022/04/02 06:32:39;;;;;;;18.92;12.48;;;;;;;0.23;100.00;99553.25;5113745;28;20092;-75
2022/04/02 06:35:07;;;;;;;18.27;12.43;;;;;;;0.12;100.00;99555.91;5113163;28;20439;-72
2022/04/02 06:37:37;;;;;;;16.25;10.70;;;;;;;0.27;100.00;99559.09;5095782;28;20039;-72
2022/04/02 06:40:05;;;;;;;15.65;10.27;;;;;;;0.10;100.00;99562.25;5114342;28;20488;-74
2022/04/02 06:42:31;;;;;;;16.55;11.02;;;;;;;0.22;100.00;99575.19;5113409;28;20042;-75
2022/04/02 06:44:59;;;;;;;15.07;9.70;;;;;;;0.23;100.00;99579.47;5111507;28;20088;-72
2022/04/02 06:47:28;;;;;;;18.13;10.65;;;;;;;0.20;100.00;99581.50;5113545;28;20040;-72
2022/04/02 06:49:55;;;;;;;18.67;10.90;;;;;;;0.25;100.00;99588.03;5113561;28;20476;-74
2022/04/02 06:52:21;;;;;;;16.10;11.50;;;;;;;0.23;100.00;99595.19;5113007;28;20110;-71
2022/04/02 06:54:47;;;;;;;17.77;11.63;;;;;;;0.09;100.00;99587.59;5094941;28;20047;-72
2022/04/02 06:57:23;;;;;;;19.02;11.60;;;;;;;0.18;100.00;99591.25;5111760;28;20088;-71
2022/04/02 06:59:49;;;;;;;21.95;11.25;;;;;;;0.11;100.00;99593.53;5113279;28;20050;-73
2022/04/02 07:02:16;;;;;;;19.23;11.57;;;;;;;0.18;100.00;99597.31;5112680;28;20499;-72
2022/04/02 07:04:42;;;;;;;19.13;12.65;;;;;;;0.20;100.00;99603.28;5113677;28;20040;-72
2022/04/02 07:07:09;;;;;;;17.75;11.35;;;;;;;0.23;100.00;99597.81;5113157;28;20487;-73
2022/04/02 07:09:35;;;;;;;19.88;12.40;;;;;;;0.20;100.00;99605.09;5113117;28;20067;-73
2022/04/02 07:12:02;;;;;;;19.45;11.60;;;;;;;0.08;100.00;99609.50;5113141;28;20035;-72
2022/04/02 07:14:28;;;;;;;19.83;13.20;;;;;;;0.13;100.00;99614.34;5112914;28;20042;-72
2022/04/02 07:16:54;;;;;;;19.52;12.32;;;;;;;0.20;100.00;99605.09;5112647;28;20040;-73
2022/04/02 07:19:22;;;;;;;19.63;11.90;;;;;;;0.35;100.00;99618.75;5113001;28;20023;-72
2022/04/02 07:21:51;;;;;;;17.65;11.43;;;;;;;0.26;100.00;99613.28;5112507;28;20028;-73
2022/04/02 07:24:18;;;;;;;15.95;9.20;;;;;;;0.35;100.00;99618.75;5113083;28;20496;-72
2022/04/02 07:26:47;;;;;;;14.77;10.03;;;;;;;0.33;100.00;99621.50;5111633;28;20042;-76
2022/04/02 07:29:15;;;;;;;17.52;10.65;;;;;;;0.46;100.00;99627.41;5111170;28;20292;-72
2022/04/02 07:31:44;;;;;;;13.68;10.25;;;;;;;0.43;100.00;99616.31;5112115;28;20122;-73
2022/04/02 07:34:11;;;;;;;17.40;10.88;;;;;;;0.48;100.00;99630.72;5112281;28;20405;-73
2022/04/02 07:37:08;;;;;;;13.68;9.95;;;;;;;0.35;100.00;99629.22;5112213;28;20058;-74
2022/04/02 07:39:50;;;;;;;17.60;10.88;;;;;;;0.45;100.00;99649.28;5112240;28;20046;-72
2022/04/02 07:42:23;;;;;;;15.93;10.65;;;;;;;0.37;100.00;99649.09;5112156;28;20358;-71
2022/04/02 07:45:06;;;;;;;18.30;12.20;;;;;;;0.47;100.00;99651.81;5110841;28;20035;-72
2022/04/02 07:47:34;;;;;;;19.52;11.40;;;;;;;0.65;100.00;99668.69;5112272;28;20042;-73
2022/04/02 07:50:02;;;;;;;;;;;;;;;0.54;100.00;99660.84;5112793;28;20043;-72
2022/04/02 07:52:30;;;;;;;17.60;11.48;;;;;;;0.63;100.00;99665.34;5110921;28;19923;-74
2022/04/02 07:54:58;;;;;;;18.08;11.65;;;;;;;0.68;100.00;99664.97;5112490;28;20540;-72
2022/04/02 07:57:27;;;;;;;18.33;11.95;;;;;;;0.84;100.00;99667.16;5111994;28;20134;-72
2022/04/02 08:00:04;;;;;;;18.15;11.52;;;;;;;0.86;100.00;99673.97;5111341;28;20401;-73
2022/04/02 08:02:46;;;;;;;14.57;10.63;;;;;;;0.80;100.00;99677.94;5112130;28;20045;-72
2022/04/02 08:05:20;;;;;;;17.00;11.85;;;;;;;0.90;100.00;99679.78;5111155;28;20038;-73
2022/04/02 08:07:52;;;;;;;18.52;11.00;;;;;;;0.69;100.00;99685.81;5112282;28;20114;-74
2022/04/02 08:10:20;;;;;;;14.80;10.38;;;;;;;0.72;100.00;99682.97;5112288;28;20110;-73
2022/04/02 08:12:49;;;;;;;18.55;11.45;;;;;;;0.54;100.00;99689.69;5110253;28;20065;-71
2022/04/02 08:15:16;;;;;;;18.42;10.07;;;;;;;0.63;100.00;99694.16;5110820;28;20085;-70
2022/04/02 08:17:44;;;;;;;19.33;11.95;;;;;;;0.72;100.00;99692.63;5111854;28;20030;-75
2022/04/02 08:20:16;;;;;;;19.52;11.70;;;;;;;0.84;100.00;99694.22;5111028;28;20069;-73
2022/04/02 08:22:43;;;;;;;15.02;10.88;;;;;;;0.86;100.00;99692.34;5093548;28;20043;-72
2022/04/02 08:25:09;;;;;;;17.85;10.80;;;;;;;0.77;100.00;99695.69;5112184;28;20476;-72
2022/04/02 08:27:50;;;;;;;16.00;10.30;;;;;;;0.60;100.00;99712.78;5111775;28;20046;-72
2022/04/02 08:30:23;;;;;;;17.13;11.40;;;;;;;0.56;100.00;99718.38;5111816;28;20061;-73
2022/04/02 08:33:03;;;;;;;20.10;11.77;;;;;;;0.51;100.00;99714.34;5111431;28;20035;-73
2022/04/02 08:35:38;;;;;;;20.10;11.77;;;;;;;0.53;100.00;99724.72;5110455;28;20427;-73
2022/04/02 08:38:10;;;;;;;19.85;12.00;;;;;;;0.69;100.00;99722.53;5111924;28;20040;-73
2022/04/02 08:41:13;;;;;;;24.13;12.63;;;;;;;0.71;100.00;99725.00;5111855;28;20050;-72
2022/04/02 08:43:41;;;;;;;18.65;11.85;;;;;;;0.69;100.00;99732.19;5109856;28;20043;-71
2022/04/02 08:46:48;;;;;;;17.20;10.70;;;;;;;0.70;100.00;99736.47;5111671;28;20031;-72
2022/04/02 08:49:38;;;;;;;17.00;10.73;;;;;;;0.80;100.00;99745.28;5111670;28;20036;-72
2022/04/02 08:52:15;;;;;;;16.48;10.68;;;;;;;0.84;100.00;99746.66;5111444;28;20034;-72
2022/04/02 08:54:56;;;;;;;15.90;10.75;;;;;;;0.81;100.00;99744.31;5111564;28;20035;-74
2022/04/02 08:57:32;;;;;;;18.70;11.02;;;;;;;0.80;100.00;99753.13;5110338;28;20036;-73
2022/04/02 09:00:09;;;;;;;16.25;10.23;;;;;;;0.61;100.00;99752.94;5111709;28;20035;-72
2022/04/02 09:02:56;;;;;;;15.40;9.87;;;;;;;0.58;100.00;99755.78;5110382;28;20043;-72
2022/04/02 09:05:23;;;;;;;17.45;10.73;;;;;;;0.67;100.00;99761.16;5111507;28;20271;-72
2022/04/02 09:08:18;;;;;;;18.48;11.70;;;;;;;0.64;100.00;99771.84;5112756;28;20085;-72
2022/04/02 09:11:05;;;;;;;15.27;10.40;;;;;;;0.76;100.00;99770.06;5115349;28;20054;-71
2022/04/02 09:13:49;;;;;;;14.50;9.02;;;;;;;0.59;100.00;99766.16;5115217;28;20089;-71
2022/04/02 09:16:27;;;;;;;13.70;9.18;;;;;;;0.66;100.00;99767.34;5115463;28;20392;-73
2022/04/02 09:19:12;;;;;;;14.25;10.13;;;;;;;0.69;100.00;99779.38;5115708;28;20070;-74
2022/04/02 09:22:04;;;;;;;13.82;9.48;;;;;;;0.69;100.00;99776.75;5096801;28;20028;-73
2022/04/02 09:24:51;;;;;;;14.82;9.52;;;;;;;0.62;100.00;99784.25;5115505;28;20539;-72
2022/04/02 09:27:50;;;;;;;17.20;9.48;;;;;;;0.72;100.00;99792.25;5114234;28;20403;-73
2022/04/02 09:30:54;;;;;;;20.48;10.27;;;;;;;0.72;100.00;99790.47;5115131;28;20496;-72
2022/04/02 09:33:50;;;;;;;16.40;10.60;;;;;;;0.91;100.00;99788.97;5115483;28;20039;-74
2022/04/02 09:36:31;;;;;;;16.02;10.18;;;;;;;0.84;100.00;99798.28;5115435;28;20028;-74
2022/04/02 09:39:08;;;;;;;18.10;10.57;;;;;;;0.73;100.00;99797.38;5115212;28;20614;-73
2022/04/02 09:41:59;;;;;;;13.98;9.25;;;;;;;0.86;100.00;99799.84;5113993;28;20066;-73
2022/04/02 09:44:58;;;;;;;16.77;10.45;;;;;;;0.81;100.00;99800.19;5115028;28;20035;-73
2022/04/02 09:47:38;;;;;;;13.90;9.05;;;;;;;0.85;100.00;99806.06;5115520;28;20039;-73
2022/04/02 09:50:11;;;;;;;14.25;9.23;;;;;;;0.65;100.00;99801.53;5114552;28;20522;-73
2022/04/02 09:52:43;;;;;;;14.00;8.90;;;;;;;0.60;100.00;99807.16;5114473;28;20036;-72
2022/04/02 09:55:13;;;;;;;16.70;9.00;;;;;;;0.59;100.00;99815.97;5114531;28;20046;-72
2022/04/02 09:57:44;;;;;;;15.40;9.00;;;;;;;0.53;100.00;99816.44;5114294;28;20027;-73
2022/04/02 10:00:11;;;;;;;14.35;9.25;;;;;;;0.54;100.00;99813.69;5114379;28;20081;-72
2022/04/02 10:03:00;;;;;;;16.60;9.45;;;;;;;0.68;100.00;99812.63;5112741;28;20122;-72
2022/04/02 10:05:59;;;;;;;12.77;8.38;;;;;;;0.73;100.00;99815.72;5114277;28;20028;-72
2022/04/02 10:08:47;;;;;;;11.95;8.00;;;;;;;0.70;100.00;99817.72;5113390;28;20383;-72
2022/04/02 10:11:17;;;;;;;13.18;8.57;;;;;;;0.80;100.00;99816.91;5114376;28;20131;-73
2022/04/02 10:13:44;;;;;;;13.63;8.02;;;;;;;0.81;100.00;99828.22;5112649;28;20035;-74
2022/04/02 10:16:12;;;;;;;14.27;8.07;;;;;;;0.76;100.00;99815.47;5114437;28;20040;-72
2022/04/02 10:18:41;;;;;;;16.25;9.10;;;;;;;0.67;100.00;99816.19;5114509;28;20106;-71
2022/04/02 10:21:10;;;;;;;15.02;9.13;;;;;;;0.69;100.00;99821.31;5114071;28;20770;-72
2022/04/02 10:23:37;;;;;;;18.15;10.10;;;;;;;0.82;100.00;99835.13;5112707;28;20061;-72
2022/04/02 10:26:14;;;;;;;14.75;8.90;;;;;;;0.69;100.00;99843.13;5112781;28;20032;-73
2022/04/02 10:29:08;;;;;;;14.50;9.07;;;;;;;0.69;100.00;99842.28;5113820;28;20088;-72
2022/04/02 10:31:35;;;;;;;13.48;8.40;;;;;;;0.71;100.00;99841.19;5114272;28;20064;-73
2022/04/02 10:34:34;;;;;;;13.85;8.65;;;;;;;0.70;100.00;99844.78;5113822;28;20392;-73
2022/04/02 10:37:10;;;;;;;20.25;10.13;;;;;;;0.72;100.00;99839.44;5112691;28;20399;-72
2022/04/02 10:39:53;;;;;;;16.52;9.23;;;;;;;0.78;100.00;99841.56;5113706;28;20046;-72
2022/04/02 10:42:24;;;;;;;15.43;9.07;;;;;;;0.85;100.00;99848.00;5113603;28;20080;-72
2022/04/02 10:44:57;;;;;;;14.93;8.65;;;;;;;0.74;100.00;99840.97;5112249;28;20031;-71
2022/04/02 10:47:27;;;;;;;12.80;7.93;;;;;;;0.70;100.00;99846.56;5113619;28;20387;-72
2022/04/02 10:50:00;;;;;;;12.55;7.13;;;;;;;0.53;100.00;99848.72;5114159;28;20445;-72
2022/04/02 10:52:27;;;;;;;14.95;8.10;;;;;;;0.66;100.00;99851.25;5116865;28;20114;-72
2022/04/02 10:54:52;;;;;;;14.43;8.60;;;;;;;0.74;100.00;99859.34;5112437;28;20040;-71
2022/04/02 10:57:18;;;;;;;13.40;7.40;;;;;;;0.58;100.00;99855.38;5112050;28;20036;-71
2022/04/02 10:59:48;;;;;;;13.63;8.80;;;;;;;0.60;100.00;99856.97;5113166;28;20441;-72
2022/04/02 11:02:24;;;;;;;14.73;8.32;;;;;;;0.58;100.00;99863.25;5112768;28;20027;-73
2022/04/02 11:05:04;;;;;;;16.70;9.77;;;;;;;0.77;100.00;99861.69;5111831;28;20046;-73
2022/04/02 11:07:35;;;;;;;12.93;8.55;;;;;;;0.80;100.00;99868.50;5111733;28;20130;-73
2022/04/02 11:10:01;;;;;;;14.63;8.50;;;;;;;0.69;100.00;99866.72;5111784;28;20035;-73
2022/04/02 11:12:44;;;;;;;14.02;8.18;;;;;;;0.81;100.00;99872.78;5113444;28;20027;-74
2022/04/02 11:15:22;;;;;;;13.25;8.55;;;;;;;0.79;100.00;99886.03;5096622;28;20399;-73
2022/04/02 11:17:57;;;;;;;16.13;8.55;;;;;;;0.80;100.00;99874.59;5112584;28;20043;-73
2022/04/02 11:20:25;;;;;;;15.68;8.55;;;;;;;0.70;100.00;99881.50;5113360;28;20031;-73
2022/04/02 11:22:51;;;;;;;14.70;8.70;;;;;;;0.81;100.00;99889.38;5113376;28;20122;-74
2022/04/02 11:25:31;;;;;;;11.38;7.85;;;;;;;0.68;100.00;99877.31;5113001;28;20122;-73
2022/04/02 11:28:08;;;;;;;13.18;8.43;;;;;;;0.70;100.00;99883.28;5113369;28;20480;-73
2022/04/02 11:30:36;;;;;;;11.25;7.55;;;;;;;0.69;100.00;99890.31;5112302;28;20049;-74
2022/04/02 11:33:22;;;;;;;;;;;;;;;0.58;100.00;99889.47;5112403;28;20087;-72
2022/04/02 11:35:58;;;;;;;12.50;7.93;;;;;;;0.68;100.00;99886.03;5112474;28;19915;-73
2022/04/02 11:38:34;;;;;;;11.77;8.27;;;;;;;0.74;100.00;99898.66;5113287;28;20180;-74
2022/04/02 11:41:21;;;;;;;15.02;8.35;;;;;;;0.76;100.00;99899.38;5113245;28;20178;-73
2022/04/02 11:43:51;;;;;;;11.55;7.30;;;;;;;0.76;100.00;99898.53;5112491;28;20107;-73
2022/04/02 11:46:20;;;;;;;12.85;8.68;;;;;;;0.74;100.00;99903.91;5112354;28;20032;-73
2022/04/02 11:48:54;;;;;;;13.60;8.70;;;;;;;0.84;100.00;99909.25;5112454;27;20479;-73
2022/04/02 11:51:23;;;;;;;13.02;8.13;;;;;;;0.86;100.00;99917.03;5111137;28;20035;-72
2022/04/02 11:53:49;;;;;;;12.18;8.40;;;;;;;0.82;100.00;99912.00;5111742;28;20028;-73
2022/04/02 11:56:31;;;;;;;13.23;9.02;;;;;;;0.87;100.00;99918.69;5110663;28;20449;-73
2022/04/02 11:58:59;;;;;;;15.48;8.10;;;;;;;0.78;100.00;99921.09;5112166;28;20133;-73
2022/04/02 12:01:26;;;;;;;13.43;8.60;;;;;;;0.64;100.00;99929.16;5110648;28;20092;-73
2022/04/02 12:04:07;;;;;;;15.38;9.20;;;;;;;0.68;100.00;99929.75;5093574;28;20035;-73
2022/04/02 12:06:36;;;;;;;15.80;9.55;;;;;;;0.74;100.00;99939.78;5112394;28;20115;-73
2022/04/02 12:09:18;;;;;;;14.27;8.90;;;;;;;0.80;100.00;99942.75;5112987;28;20386;-74
2022/04/02 12:11:48;;;;;;;15.02;9.80;;;;;;;0.77;100.00;99942.97;5111919;28;20330;-72
2022/04/02 12:14:25;;;;;;;14.45;9.35;;;;;;;0.73;100.00;99941.56;5110831;28;20480;-72
2022/04/02 12:17:00;;;;;;;13.95;9.10;;;;;;;0.81;100.00;99947.06;5112201;28;20462;-73
2022/04/02 12:19:36;;;;;;;19.13;11.93;;;;;;;0.91;100.00;99954.19;5112132;28;20110;-73
2022/04/02 12:22:02;;;;;;;16.27;9.75;;;;;;;1.06;100.00;99953.03;5111481;28;20024;-73
2022/04/02 12:24:53;;;;;;;19.52;11.27;;;;;;;1.03;100.00;99948.84;5111818;28;20427;-73
2022/04/02 12:27:20;;;;;;;15.73;9.43;;;;;;;1.19;100.00;99960.78;5111728;28;20035;-74
2022/04/02 12:29:48;;;;;;;14.77;9.60;;;;;;;1.19;100.00;99955.53;5110749;28;20047;-71
2022/04/02 12:32:28;;;;;;;14.55;9.25;;;;;;;1.22;100.00;99956.09;5112033;28;20080;-72
2022/04/02 12:35:03;;;;;;;11.55;8.73;;;;;;;1.24;100.00;99964.72;5112374;28;20035;-72
2022/04/02 12:37:32;;;;;;;14.65;9.00;;;;;;;1.09;100.00;99968.50;5111927;28;20038;-72
2022/04/02 12:39:59;;;;;;;13.32;9.18;;;;;;;1.01;100.00;99961.25;5111799;28;20035;-70
2022/04/02 12:42:39;;;;;;;12.93;8.55;;;;;;;1.07;100.00;99978.31;5112046;28;20031;-71
2022/04/02 12:45:14;;;;;;;13.55;8.18;;;;;;;0.83;100.00;99981.03;5114708;28;20043;-73
2022/04/02 12:47:41;;;;;;;13.98;9.02;;;;;;;1.04;100.00;99978.53;5115927;28;20047;-73
2022/04/02 12:50:16;;;;;;;13.40;8.60;;;;;;;1.02;100.00;99985.69;5115781;28;20046;-72
2022/04/02 12:52:50;;;;;;;13.15;8.63;;;;;;;1.02;100.00;99989.13;5115447;28;20088;-73
2022/04/02 12:55:21;;;;;;;16.33;9.50;;;;;;;0.71;100.00;99985.41;5115747;28;20043;-73
2022/04/02 12:58:05;;;;;;;18.48;9.38;;;;;;;0.72;100.00;99999.38;5115494;28;20118;-73
2022/04/02 13:00:36;;;;;;;15.73;9.80;;;;;;;0.72;100.00;99988.88;5115538;28;20468;-73
2022/04/02 13:03:04;;;;;;;16.45;9.02;;;;;;;0.86;100.00;99990.47;5114037;28;20055;-72
2022/04/02 13:05:52;;;;;;;15.77;9.55;;;;;;;0.91;100.00;99998.78;5097048;28;20113;-73
2022/04/02 13:08:17;;;;;;;15.52;9.13;;;;;;;0.82;100.00;100003.78;5114131;28;20071;-72
2022/04/02 13:10:45;;;;;;;16.15;9.98;;;;;;;0.91;100.00;99998.78;5115315;28;20069;-72
2022/04/02 13:13:14;;;;;;;14.60;9.68;;;;;;;0.84;100.00;100011.53;5115071;28;20081;-72
2022/04/02 13:15:51;;;;;;;15.88;9.30;;;;;;;0.82;100.00;100011.66;5115286;28;20032;-71
2022/04/02 13:21:08;;;;;;;17.02;11.25;;;;;;;0.62;100.00;100009.72;5115203;28;20473;-72
2022/04/02 13:24:18;;;;;;;16.67;10.15;;;;;;;0.76;100.00;100019.97;5115992;28;20046;-72
2022/04/02 13:27:07;;;;;;;16.65;10.48;;;;;;;0.88;100.00;100020.00;5086222;28;20052;-72
2022/04/02 13:29:48;;;;;;;15.18;10.10;;;;;;;0.87;100.00;100018.34;5084235;28;20047;-73
2022/04/02 13:32:54;;;;;;;16.88;10.30;;;;;;;1.04;100.00;100026.59;5114773;28;20055;-73
2022/04/02 13:35:39;;;;;;;16.90;10.85;;;;;;;1.07;100.00;100018.47;5113550;28;20096;-72
2022/04/02 13:38:42;;;;;;;19.55;9.82;;;;;;;1.04;100.00;100010.00;5114604;28;20100;-73
2022/04/02 13:41:12;;;;;;;15.15;9.45;;;;;;;1.03;100.00;100022.28;5114943;28;20049;-73
2022/04/02 13:43:43;;;;;;;17.17;10.55;;;;;;;1.13;100.00;100030.31;5096179;28;20047;-73
2022/04/02 13:46:11;;;;;;;19.92;11.15;;;;;;;1.07;100.00;100031.59;5114433;28;20498;-73
2022/04/02 13:48:54;;;;;;;14.57;9.82;;;;;;;1.22;100.00;100031.38;5114372;28;20043;-73
2022/04/02 13:51:37;;;;;;;16.42;10.02;;;;;;;1.09;100.00;100024.44;5114489;28;20036;-73
2022/04/02 13:54:06;;;;;;;16.00;10.10;;;;;;;1.23;100.00;100033.88;5113939;27;20031;-73
2022/04/02 13:56:40;;;;;;;17.77;11.63;;;;;;;1.28;100.00;100031.72;5114037;28;20429;-73
2022/04/02 13:59:11;;;;;;;14.00;10.30;;;;;;;1.22;100.00;100031.38;5114400;28;20032;-72
2022/04/02 14:01:53;;;;;;;15.07;9.82;;;;;;;1.33;100.00;100041.88;5113968;28;20031;-74
2022/04/02 14:04:34;;;;;;;18.83;11.52;;;;;;;1.32;100.00;100033.16;5114132;28;20088;-74
2022/04/02 14:07:02;;;;;;;17.38;10.88;;;;;;;1.25;100.00;100039.84;5113800;28;20067;-72
2022/04/02 14:09:30;;;;;;;17.73;11.55;;;;;;;1.27;100.00;100048.44;5113961;28;20039;-74
2022/04/02 14:12:00;;;;;;;;;;;;;;;1.23;100.00;100046.16;5113946;28;20036;-71
2022/04/02 14:14:31;;;;;;;15.65;11.02;;;;;;;1.26;100.00;100051.19;5114028;28;19920;-72
2022/04/02 14:17:05;;;;;;;23.25;11.25;;;;;;;1.18;100.00;100051.78;5113826;28;20031;-72
2022/04/02 14:19:46;;;;;;;16.48;10.50;;;;;;;1.25;100.00;100062.63;5113688;28;20053;-73
2022/04/02 14:22:16;;;;;;;18.08;10.13;;;;;;;1.07;100.00;100052.59;5113533;28;20430;-72
2022/04/02 14:24:56;;;;;;;18.67;11.48;;;;;;;0.94;100.00;100048.41;5114175;28;20047;-74
2022/04/02 14:27:57;;;;;;;20.35;12.23;;;;;;;0.95;100.00;100057.94;5114230;28;20027;-72
2022/04/02 14:30:57;;;;;;;19.52;12.48;;;;;;;0.86;100.00;100061.25;5113872;28;20387;-72
2022/04/02 14:33:41;;;;;;;14.95;10.45;;;;;;;1.13;100.00;100064.41;5089566;28;20054;-72
2022/04/02 14:36:41;;;;;;;16.50;10.32;;;;;;;1.30;100.00;100071.84;5113647;28;20028;-72
2022/04/02 14:39:13;;;;;;;16.92;11.50;;;;;;;1.43;100.00;100062.97;5116074;28;20047;-71
2022/04/02 14:41:47;;;;;;;15.75;10.60;;;;;;;1.45;100.00;100068.97;5112391;28;20106;-70
2022/04/02 14:44:50;;;;;;;17.35;10.20;;;;;;;1.45;100.00;100061.94;5110415;28;20067;-72
2022/04/02 14:47:34;;;;;;;18.98;10.50;;;;;;;1.52;100.00;100067.53;5103429;28;20024;-71
2022/04/02 14:50:33;;;;;;;19.35;11.10;;;;;;;1.61;100.00;100061.56;5113787;28;20438;-71
2022/04/02 14:53:20;;;;;;;19.13;10.68;;;;;;;1.64;100.00;100063.94;5112942;28;20088;-70
2022/04/02 14:56:23;;;;;;;14.90;10.07;;;;;;;1.67;100.00;100070.75;5113033;28;20028;-71
2022/04/02 14:59:17;;;;;;;15.13;9.95;;;;;;;1.73;100.00;100078.13;5113146;28;20034;-73
2022/04/02 15:02:11;;;;;;;16.92;10.48;;;;;;;1.73;100.00;100076.34;5113179;28;20028;-73
2022/04/02 15:04:48;;;;;;;18.58;10.55;;;;;;;1.73;100.00;100080.75;5112715;28;20545;-71
2022/04/02 15:08:01;;;;;;;19.63;10.20;;;;;;;1.74;100.00;100087.69;5112691;28;20388;-71
2022/04/02 15:10:32;;;;;;;15.60;10.50;;;;;;;1.64;100.00;100090.22;5094703;28;20055;-72
2022/04/02 15:13:01;;;;;;;17.35;10.93;;;;;;;1.70;100.00;100087.09;5112440;27;20032;-72
2022/04/02 15:15:40;;;;;;;15.38;9.70;;;;;;;1.61;100.00;100093.06;5112837;28;20036;-72
2022/04/02 15:18:09;;;;;;;18.05;10.55;;;;;;;1.63;100.00;100093.78;5111444;28;20043;-73
2022/04/02 15:20:35;;;;;;;14.38;9.27;;;;;;;1.69;100.00;100093.28;5111375;28;20035;-72
2022/04/02 15:23:20;;;;;;;17.02;10.25;;;;;;;1.78;100.00;100089.13;5112712;28;20035;-72
2022/04/02 15:25:49;;;;;;;17.60;11.02;;;;;;;1.79;100.00;100096.03;5111399;28;20043;-72
2022/04/02 15:28:19;;;;;;;;;;;;;;;1.77;100.00;100090.91;5113113;28;20122;-72
2022/04/02 15:30:47;;;;;;;17.48;9.60;;;;;;;1.74;100.00;100099.03;5112701;28;20532;-71
2022/04/02 15:33:17;;;;;;;18.73;9.68;;;;;;;1.70;100.00;100113.38;5112203;28;20377;-72
2022/04/02 15:35:51;;;;;;;16.23;11.40;;;;;;;1.73;100.00;100114.91;5112478;28;20118;-72
2022/04/02 15:38:26;;;;;;;18.70;10.63;;;;;;;1.56;100.00;100105.69;5112334;28;20031;-72
2022/04/02 15:41:03;;;;;;;16.67;10.80;;;;;;;1.78;100.00;100112.75;5112230;28;20096;-73
2022/04/02 15:43:32;;;;;;;19.70;11.52;;;;;;;1.74;100.00;100114.78;5112273;28;20028;-72
2022/04/02 15:46:27;;;;;;;19.55;10.75;;;;;;;1.99;100.00;100118.94;5112358;28;20502;-72
2022/04/02 15:49:13;;;;;;;17.27;9.02;;;;;;;1.92;100.00;100125.66;5112687;28;20051;-72
2022/04/02 15:51:47;;;;;;;20.20;10.38;;;;;;;1.91;100.00;100123.97;5112550;28;20529;-72
2022/04/02 15:54:36;;;;;;;22.05;10.90;;;;;;;2.02;100.00;100126.59;5112267;28;20032;-72
2022/04/02 15:57:04;;;;;;;16.52;9.82;;;;;;;1.93;100.00;100131.72;5110887;28;20115;-74
2022/04/02 15:59:40;;;;;;;18.70;10.40;;;;;;;2.04;100.00;100139.63;5111958;28;20028;-74
2022/04/02 16:02:26;;;;;;;15.68;9.25;;;;;;;2.10;100.00;100134.72;5111795;28;20036;-74
2022/04/02 16:05:07;;;;;;;14.65;9.15;;;;;;;2.06;99.59;100125.38;5112149;28;20036;-71
2022/04/02 16:07:33;;;;;;;16.50;9.60;;;;;;;2.09;98.98;100134.84;5110448;28;20101;-71
2022/04/02 16:10:16;;;;;;;17.95;10.15;;;;;;;2.15;100.00;100129.06;5111942;28;20035;-71
2022/04/02 16:12:48;;;;;;;16.60;9.68;;;;;;;2.17;100.00;100137.69;5110381;28;20036;-71
2022/04/02 16:15:20;;;;;;;15.07;10.10;;;;;;;2.18;98.98;100134.91;5110558;28;20043;-72
2022/04/02 16:18:10;;;;;;;14.73;8.23;;;;;;;2.19;97.87;100146.28;5111720;28;20035;-72